createdAt,value
2022-12-11T00:00:06.547Z,996.97
2022-12-11T00:01:06.558Z,996.98
2022-12-11T00:02:06.558Z,997.02
2022-12-11T00:03:16.059Z,997.00
2022-12-11T00:04:06.520Z,997.04
2022-12-11T00:05:06.536Z,997.04
2022-12-11T00:06:13.727Z,997.05
2022-12-11T00:07:22.076Z,997.04
2022-12-11T00:08:06.485Z,997.04
2022-12-11T00:09:06.500Z,997.05
2022-12-11T00:10:06.463Z,997.11
2022-12-11T00:11:09.483Z,997.09
2022-12-11T00:12:07.454Z,997.14
2022-12-11T00:13:07.691Z,997.13
2022-12-11T00:14:06.658Z,997.11
2022-12-11T00:15:06.416Z,997.14
2022-12-11T00:16:06.379Z,997.12
2022-12-11T00:17:06.693Z,997.14
2022-12-11T00:18:07.621Z,997.12
2022-12-11T00:19:06.394Z,997.14
2022-12-11T00:20:06.589Z,997.12
2022-12-11T00:21:06.352Z,997.16
2022-12-11T00:22:06.320Z,997.16
2022-12-11T00:23:06.331Z,997.13
2022-12-11T00:24:06.333Z,997.16
2022-12-11T00:25:07.832Z,997.16
2022-12-11T00:26:21.537Z,997.16
2022-12-11T00:27:06.270Z,997.18
2022-12-11T00:28:21.588Z,997.22
2022-12-11T00:29:21.747Z,997.22
2022-12-11T00:30:06.262Z,997.18
2022-12-11T00:31:07.518Z,997.20
2022-12-11T00:32:06.245Z,997.17
2022-12-11T00:33:09.266Z,997.16
2022-12-11T00:34:06.222Z,997.21
2022-12-11T00:35:06.214Z,997.19
2022-12-11T00:36:06.172Z,997.23
2022-12-11T00:37:06.205Z,997.26
2022-12-11T00:38:06.168Z,997.24
2022-12-11T00:39:06.406Z,997.26
2022-12-11T00:40:06.150Z,997.26
2022-12-11T00:41:09.186Z,997.26
2022-12-11T00:42:06.120Z,997.28
2022-12-11T00:43:06.123Z,997.27
2022-12-11T00:44:06.331Z,997.27
2022-12-11T00:45:06.135Z,997.29
2022-12-11T00:46:21.466Z,997.30
2022-12-11T00:47:06.103Z,997.29
2022-12-11T00:48:06.075Z,997.28
2022-12-11T00:49:06.094Z,997.30
2022-12-11T00:50:09.087Z,997.32
2022-12-11T00:51:06.071Z,997.30
2022-12-11T00:52:13.154Z,997.30
2022-12-11T00:53:06.278Z,997.32
2022-12-11T00:54:06.231Z,997.25
2022-12-11T00:55:07.125Z,997.30
2022-12-11T00:56:06.216Z,997.28
2022-12-11T00:57:06.225Z,997.34
2022-12-11T00:58:07.221Z,997.28
2022-12-11T00:59:05.978Z,997.36
2022-12-11T01:00:08.960Z,997.34
2022-12-11T01:01:07.034Z,997.39
2022-12-11T01:02:06.297Z,997.34
2022-12-11T01:03:05.953Z,997.36
2022-12-11T01:04:05.946Z,997.43
2022-12-11T01:05:09.224Z,997.42
2022-12-11T01:06:05.876Z,997.43
2022-12-11T01:07:13.011Z,997.42
2022-12-11T01:08:05.913Z,997.44
2022-12-11T01:09:05.886Z,997.42
2022-12-11T01:10:05.877Z,997.41
2022-12-11T01:11:05.874Z,997.42
2022-12-11T01:12:06.042Z,997.45
2022-12-11T01:13:05.836Z,997.42
2022-12-11T01:14:08.836Z,997.39
2022-12-11T01:15:07.034Z,997.38
2022-12-11T01:16:05.787Z,997.41
2022-12-11T01:17:13.066Z,997.35
2022-12-11T01:18:12.952Z,997.39
2022-12-11T01:19:05.994Z,997.39
2022-12-11T01:20:08.765Z,997.42
2022-12-11T01:21:06.023Z,997.39
2022-12-11T01:22:06.945Z,997.40
2022-12-11T01:23:05.718Z,997.38
2022-12-11T01:24:05.695Z,997.39
2022-12-11T01:25:08.944Z,997.42
2022-12-11T01:26:06.680Z,997.39
2022-12-11T01:27:05.948Z,997.42
2022-12-11T01:28:05.641Z,997.42
2022-12-11T01:29:05.656Z,997.37
2022-12-11T01:30:05.635Z,997.36
2022-12-11T01:31:05.686Z,997.36
2022-12-11T01:32:05.650Z,997.31
2022-12-11T01:33:21.261Z,997.35
2022-12-11T01:34:06.828Z,997.35
2022-12-11T01:35:05.606Z,997.35
2022-12-11T01:36:05.564Z,997.38
2022-12-11T01:37:05.566Z,997.35
2022-12-11T01:38:05.564Z,997.32
2022-12-11T01:39:05.775Z,997.33
2022-12-11T01:40:05.742Z,997.32
2022-12-11T01:41:05.540Z,997.30
2022-12-11T01:42:05.763Z,997.29
2022-12-11T01:43:06.540Z,997.30
2022-12-11T01:44:08.531Z,997.29
2022-12-11T01:45:05.719Z,997.24
2022-12-11T01:46:12.874Z,997.25
2022-12-11T01:47:05.487Z,997.25
2022-12-11T01:48:06.686Z,997.25
2022-12-11T01:49:05.438Z,997.27
2022-12-11T01:50:05.678Z,997.28
2022-12-11T01:51:05.439Z,997.24
2022-12-11T01:52:05.425Z,997.21
2022-12-11T01:53:08.441Z,997.21
2022-12-11T01:54:08.422Z,997.21
2022-12-11T01:55:05.462Z,997.22
2022-12-11T01:56:08.649Z,997.25
2022-12-11T01:57:05.382Z,997.26
2022-12-11T01:58:08.400Z,997.28
2022-12-11T01:59:05.348Z,997.27
2022-12-11T02:00:05.324Z,997.31
2022-12-11T02:01:06.405Z,997.30
2022-12-11T02:02:05.580Z,997.28
2022-12-11T02:03:05.352Z,997.30
2022-12-11T02:04:05.293Z,997.39
2022-12-11T02:05:05.531Z,997.33
2022-12-11T02:06:08.290Z,997.31
2022-12-11T02:07:08.535Z,997.31
2022-12-11T02:08:20.739Z,997.29
2022-12-11T02:09:20.628Z,997.34
2022-12-11T02:10:05.466Z,997.34
2022-12-11T02:11:05.486Z,997.36
2022-12-11T02:12:05.208Z,997.37
2022-12-11T02:13:05.474Z,997.37
2022-12-11T02:14:05.192Z,997.38
2022-12-11T02:15:05.210Z,997.43
2022-12-11T02:16:12.529Z,997.44
2022-12-11T02:17:05.169Z,997.45
2022-12-11T02:18:05.146Z,997.42
2022-12-11T02:19:05.150Z,997.42
2022-12-11T02:20:05.109Z,997.42
2022-12-11T02:21:05.144Z,997.39
2022-12-11T02:22:08.369Z,997.41
2022-12-11T02:23:05.111Z,997.39
2022-12-11T02:24:05.059Z,997.41
2022-12-11T02:25:06.363Z,997.38
2022-12-11T02:26:06.068Z,997.37
2022-12-11T02:27:08.345Z,997.38
2022-12-11T02:28:05.061Z,997.39
2022-12-11T02:29:06.053Z,997.38
2022-12-11T02:30:12.190Z,997.38
2022-12-11T02:31:05.054Z,997.36
2022-12-11T02:32:08.042Z,997.39
2022-12-11T02:33:06.264Z,997.42
2022-12-11T02:34:05.233Z,997.41
2022-12-11T02:35:05.206Z,997.39
2022-12-11T02:36:06.199Z,997.39
2022-12-11T02:37:04.956Z,997.39
2022-12-11T02:38:06.118Z,997.38
2022-12-11T02:39:05.182Z,997.36
2022-12-11T02:40:04.924Z,997.32
2022-12-11T02:41:04.927Z,997.40
2022-12-11T02:42:07.936Z,997.37
2022-12-11T02:43:04.905Z,997.47
2022-12-11T02:44:04.901Z,997.46
2022-12-11T02:45:04.883Z,997.48
2022-12-11T02:46:04.909Z,997.48
2022-12-11T02:47:05.868Z,997.47
2022-12-11T02:48:04.831Z,997.50
2022-12-11T02:49:11.936Z,997.50
2022-12-11T02:50:04.812Z,997.48
2022-12-11T02:51:04.823Z,997.45
2022-12-11T02:52:07.842Z,997.44
2022-12-11T02:53:04.781Z,997.40
2022-12-11T02:54:04.793Z,997.45
2022-12-11T02:55:08.057Z,997.44
2022-12-11T02:56:04.774Z,997.43
2022-12-11T02:57:07.775Z,997.39
2022-12-11T02:58:12.047Z,997.39
2022-12-11T02:59:11.973Z,997.35
2022-12-11T03:00:04.698Z,997.39
2022-12-11T03:01:04.803Z,997.37
2022-12-11T03:02:04.735Z,997.35
2022-12-11T03:03:05.709Z,997.35
2022-12-11T03:04:04.959Z,997.37
2022-12-11T03:05:04.908Z,997.39
2022-12-11T03:06:07.913Z,997.43
2022-12-11T03:07:07.685Z,997.43
2022-12-11T03:08:04.648Z,997.41
2022-12-11T03:09:04.627Z,997.40
2022-12-11T03:10:04.647Z,997.45
2022-12-11T03:11:07.660Z,997.49
2022-12-11T03:12:04.586Z,997.47
2022-12-11T03:13:04.596Z,997.47
2022-12-11T03:14:04.574Z,997.46
2022-12-11T03:15:04.818Z,997.46
2022-12-11T03:16:04.568Z,997.48
2022-12-11T03:17:05.580Z,997.43
2022-12-11T03:18:05.761Z,997.46
2022-12-11T03:19:04.524Z,997.47
2022-12-11T03:20:04.523Z,997.48
2022-12-11T03:21:04.503Z,997.43
2022-12-11T03:22:04.474Z,997.44
2022-12-11T03:23:11.711Z,997.43
2022-12-11T03:24:04.727Z,997.40
2022-12-11T03:25:07.505Z,997.37
2022-12-11T03:26:05.488Z,997.40
2022-12-11T03:27:09.523Z,997.37
2022-12-11T03:28:05.417Z,997.38
2022-12-11T03:29:04.451Z,997.37
2022-12-11T03:30:11.546Z,997.36
2022-12-11T03:31:04.681Z,997.36
2022-12-11T03:32:04.612Z,997.40
2022-12-11T03:33:07.429Z,997.40
2022-12-11T03:34:04.393Z,997.40
2022-12-11T03:35:04.619Z,997.43
2022-12-11T03:36:04.343Z,997.36
2022-12-11T03:37:04.588Z,997.44
2022-12-11T03:38:05.339Z,997.40
2022-12-11T03:39:04.568Z,997.42
2022-12-11T03:40:04.576Z,997.40
2022-12-11T03:41:04.338Z,997.42
2022-12-11T03:42:04.276Z,997.40
2022-12-11T03:43:07.351Z,997.42
2022-12-11T03:44:07.529Z,997.46
2022-12-11T03:45:04.292Z,997.52
2022-12-11T03:46:04.340Z,997.49
2022-12-11T03:47:05.249Z,997.46
2022-12-11T03:48:05.243Z,997.46
2022-12-11T03:49:05.247Z,997.48
2022-12-11T03:50:04.224Z,997.44
2022-12-11T03:51:04.232Z,997.48
2022-12-11T03:52:04.186Z,997.49
2022-12-11T03:53:04.187Z,997.46
2022-12-11T03:54:04.397Z,997.39
2022-12-11T03:55:05.421Z,997.37
2022-12-11T03:56:04.385Z,997.41
2022-12-11T03:57:04.175Z,997.42
2022-12-11T03:58:11.419Z,997.48
2022-12-11T03:59:04.126Z,997.49
2022-12-11T04:00:11.216Z,997.46
2022-12-11T04:01:04.140Z,997.43
2022-12-11T04:02:04.193Z,997.41
2022-12-11T04:03:08.205Z,997.40
2022-12-11T04:04:20.414Z,997.38
2022-12-11T04:05:04.300Z,997.36
2022-12-11T04:06:04.067Z,997.39
2022-12-11T04:07:05.060Z,997.37
2022-12-11T04:08:04.098Z,997.35
2022-12-11T04:09:07.345Z,997.35
2022-12-11T04:10:04.248Z,997.35
2022-12-11T04:11:04.283Z,997.37
2022-12-11T04:12:04.203Z,997.40
2022-12-11T04:13:05.008Z,997.41
2022-12-11T04:14:07.006Z,997.39
2022-12-11T04:15:04.257Z,997.37
2022-12-11T04:16:11.313Z,997.31
2022-12-11T04:17:11.380Z,997.33
2022-12-11T04:18:03.940Z,997.27
2022-12-11T04:19:04.162Z,997.27
2022-12-11T04:20:03.940Z,997.28
2022-12-11T04:21:11.286Z,997.31
2022-12-11T04:22:03.920Z,997.26
2022-12-11T04:23:04.887Z,997.26
2022-12-11T04:24:04.911Z,997.29
2022-12-11T04:25:03.880Z,997.25
2022-12-11T04:26:03.866Z,997.27
2022-12-11T04:27:05.101Z,997.29
2022-12-11T04:28:11.343Z,997.28
2022-12-11T04:29:03.821Z,997.29
2022-12-11T04:30:06.843Z,997.28
2022-12-11T04:31:04.052Z,997.27
2022-12-11T04:32:04.046Z,997.26
2022-12-11T04:33:04.015Z,997.25
2022-12-11T04:34:03.770Z,997.27
2022-12-11T04:35:07.004Z,997.27
2022-12-11T04:36:03.777Z,997.29
2022-12-11T04:37:04.989Z,997.26
2022-12-11T04:38:03.992Z,997.29
2022-12-11T04:39:06.749Z,997.30
2022-12-11T04:40:04.743Z,997.32
2022-12-11T04:41:03.702Z,997.36
2022-12-11T04:42:03.703Z,997.29
2022-12-11T04:43:03.695Z,997.32
2022-12-11T04:44:10.856Z,997.36
2022-12-11T04:45:03.652Z,997.32
2022-12-11T04:46:03.692Z,997.35
2022-12-11T04:47:03.629Z,997.25
2022-12-11T04:48:03.868Z,997.32
2022-12-11T04:49:04.885Z,997.29
2022-12-11T04:50:10.787Z,997.31
2022-12-11T04:51:04.637Z,997.34
2022-12-11T04:52:03.847Z,997.33
2022-12-11T04:53:03.807Z,997.35
2022-12-11T04:54:03.851Z,997.31
2022-12-11T04:55:03.793Z,997.28
2022-12-11T04:56:03.568Z,997.26
2022-12-11T04:57:10.621Z,997.27
2022-12-11T04:58:03.543Z,997.29
2022-12-11T04:59:03.543Z,997.31
2022-12-11T05:00:03.531Z,997.28
2022-12-11T05:01:03.521Z,997.29
2022-12-11T05:02:03.799Z,997.32
2022-12-11T05:03:03.547Z,997.29
2022-12-11T05:04:03.740Z,997.22
2022-12-11T05:05:06.727Z,997.22
2022-12-11T05:06:03.697Z,997.13
2022-12-11T05:07:03.440Z,997.17
2022-12-11T05:08:10.646Z,997.16
2022-12-11T05:09:03.456Z,997.21
2022-12-11T05:10:03.679Z,997.19
2022-12-11T05:11:03.657Z,997.20
2022-12-11T05:12:10.707Z,997.23
2022-12-11T05:13:04.401Z,997.23
2022-12-11T05:14:03.382Z,997.20
2022-12-11T05:15:03.616Z,997.21
2022-12-11T05:16:03.637Z,997.15
2022-12-11T05:17:06.604Z,997.22
2022-12-11T05:18:24.579Z,997.22
2022-12-11T05:19:03.324Z,997.21
2022-12-11T05:20:03.346Z,997.21
2022-12-11T05:21:03.350Z,997.17
2022-12-11T05:22:03.522Z,997.18
2022-12-11T05:23:04.533Z,997.15
2022-12-11T05:24:03.287Z,997.12
2022-12-11T05:25:11.086Z,997.15
2022-12-11T05:26:03.264Z,997.13
2022-12-11T05:27:04.261Z,997.13
2022-12-11T05:28:06.257Z,997.12
2022-12-11T05:29:04.269Z,997.12
2022-12-11T05:30:03.213Z,997.11
2022-12-11T05:31:03.247Z,997.11
2022-12-11T05:32:03.204Z,997.13
2022-12-11T05:33:03.430Z,997.04
2022-12-11T05:34:03.165Z,997.13
2022-12-11T05:35:03.167Z,997.11
2022-12-11T05:36:06.401Z,997.09
2022-12-11T05:37:03.214Z,997.11
2022-12-11T05:38:03.124Z,997.09
2022-12-11T05:39:03.152Z,997.11
2022-12-11T05:40:03.125Z,997.02
2022-12-11T05:41:04.118Z,997.09
2022-12-11T05:42:03.323Z,997.06
2022-12-11T05:43:03.334Z,997.07
2022-12-11T05:44:03.067Z,997.09
2022-12-11T05:45:03.112Z,997.03
2022-12-11T05:46:04.047Z,997.02
2022-12-11T05:47:03.120Z,997.02
2022-12-11T05:48:03.058Z,997.03
2022-12-11T05:49:03.024Z,997.03
2022-12-11T05:50:06.277Z,997.08
2022-12-11T05:51:03.017Z,997.02
2022-12-11T05:52:03.019Z,997.04
2022-12-11T05:53:02.976Z,996.98
2022-12-11T05:54:06.019Z,997.01
2022-12-11T05:55:03.016Z,997.04
2022-12-11T05:56:02.952Z,997.04
2022-12-11T05:57:02.986Z,997.00
2022-12-11T05:58:02.926Z,997.05
2022-12-11T05:59:02.935Z,997.04
2022-12-11T06:00:02.910Z,997.08
2022-12-11T06:01:02.898Z,997.09
2022-12-11T06:02:02.968Z,997.05
2022-12-11T06:03:02.992Z,997.08
2022-12-11T06:04:10.074Z,997.08
2022-12-11T06:05:03.106Z,997.11
2022-12-11T06:06:03.055Z,997.10
2022-12-11T06:07:02.870Z,997.07
2022-12-11T06:08:26.931Z,997.06
2022-12-11T06:09:06.083Z,997.02
2022-12-11T06:10:10.017Z,997.02
2022-12-11T06:11:03.810Z,997.02
2022-12-11T06:12:02.793Z,997.01
2022-12-11T06:13:02.800Z,997.01
2022-12-11T06:14:02.779Z,997.01
2022-12-11T06:15:02.992Z,997.01
2022-12-11T06:16:09.984Z,996.98
2022-12-11T06:17:05.979Z,996.95
2022-12-11T06:18:02.992Z,996.95
2022-12-11T06:19:02.958Z,996.93
2022-12-11T06:20:02.730Z,996.95
2022-12-11T06:21:02.698Z,996.94
2022-12-11T06:22:02.959Z,996.96
2022-12-11T06:23:02.896Z,996.95
2022-12-11T06:24:03.688Z,996.94
2022-12-11T06:25:03.663Z,996.95
2022-12-11T06:26:03.921Z,996.97
2022-12-11T06:27:02.636Z,996.94
2022-12-11T06:28:02.670Z,996.96
2022-12-11T06:29:05.290Z,996.96
2022-12-11T06:30:03.634Z,996.97
2022-12-11T06:31:02.596Z,996.96
2022-12-11T06:32:02.634Z,996.94
2022-12-11T06:33:03.595Z,996.97
2022-12-11T06:34:03.789Z,996.93
2022-12-11T06:35:02.584Z,996.92
2022-12-11T06:36:02.548Z,996.94
2022-12-11T06:37:02.547Z,996.94
2022-12-11T06:38:02.539Z,996.95
2022-12-11T06:39:03.541Z,996.91
2022-12-11T06:40:02.563Z,996.93
2022-12-11T06:41:02.490Z,996.91
2022-12-11T06:42:03.526Z,996.85
2022-12-11T06:43:02.482Z,996.89
2022-12-11T06:44:02.494Z,996.84
2022-12-11T06:45:03.475Z,996.84
2022-12-11T06:46:04.412Z,996.82
2022-12-11T06:47:03.448Z,996.83
2022-12-11T06:48:03.705Z,996.81
2022-12-11T06:49:02.670Z,996.80
2022-12-11T06:50:05.444Z,996.84
2022-12-11T06:51:02.416Z,996.81
2022-12-11T06:52:02.395Z,996.82
2022-12-11T06:53:09.464Z,996.80
2022-12-11T06:54:02.372Z,996.78
2022-12-11T06:55:02.368Z,996.84
2022-12-11T06:56:03.595Z,996.84
2022-12-11T06:57:05.610Z,996.83
2022-12-11T06:58:03.603Z,996.81
2022-12-11T06:59:07.274Z,996.81
2022-12-11T07:00:03.565Z,996.84
2022-12-11T07:01:02.608Z,996.88
2022-12-11T07:02:02.351Z,996.84
2022-12-11T07:03:05.287Z,996.91
2022-12-11T07:04:02.519Z,996.88
2022-12-11T07:05:09.738Z,996.91
2022-12-11T07:06:02.529Z,996.90
2022-12-11T07:07:02.491Z,996.90
2022-12-11T07:08:02.327Z,996.89
2022-12-11T07:09:02.221Z,996.88
2022-12-11T07:10:08.010Z,996.85
2022-12-11T07:11:03.430Z,996.86
2022-12-11T07:12:02.223Z,996.80
2022-12-11T07:13:02.182Z,996.84
2022-12-11T07:14:02.173Z,996.79
2022-12-11T07:15:02.157Z,996.79
2022-12-11T07:16:05.248Z,996.80
2022-12-11T07:17:02.173Z,996.84
2022-12-11T07:18:02.380Z,996.85
2022-12-11T07:19:02.113Z,996.82
2022-12-11T07:20:02.112Z,996.86
2022-12-11T07:21:02.093Z,996.87
2022-12-11T07:22:02.104Z,996.86
2022-12-11T07:23:09.358Z,996.85
2022-12-11T07:24:03.084Z,996.92
2022-12-11T07:25:23.051Z,996.94
2022-12-11T07:26:02.272Z,996.94
2022-12-11T07:27:02.059Z,996.92
2022-12-11T07:28:02.281Z,996.98
2022-12-11T07:29:02.245Z,996.98
2022-12-11T07:30:05.258Z,996.98
2022-12-11T07:31:03.030Z,996.99
2022-12-11T07:32:09.134Z,997.01
2022-12-11T07:33:02.294Z,997.02
2022-12-11T07:34:23.206Z,997.02
2022-12-11T07:35:01.937Z,997.02
2022-12-11T07:36:02.957Z,997.01
2022-12-11T07:37:02.153Z,997.02
2022-12-11T07:38:01.956Z,996.99
2022-12-11T07:39:02.152Z,997.00
2022-12-11T07:40:01.893Z,997.02
2022-12-11T07:41:01.888Z,996.97
2022-12-11T07:42:01.883Z,997.01
2022-12-11T07:43:02.118Z,996.97
2022-12-11T07:44:01.894Z,997.03
2022-12-11T07:45:09.349Z,997.00
2022-12-11T07:46:03.216Z,997.02
2022-12-11T07:47:02.040Z,997.06
2022-12-11T07:48:02.824Z,997.03
2022-12-11T07:49:02.056Z,997.04
2022-12-11T07:50:08.880Z,997.03
2022-12-11T07:51:01.783Z,997.09
2022-12-11T07:52:02.787Z,997.02
2022-12-11T07:53:01.750Z,997.03
2022-12-11T07:54:01.783Z,997.01
2022-12-11T07:55:04.793Z,997.01
2022-12-11T07:56:04.788Z,997.00
2022-12-11T07:57:01.955Z,996.98
2022-12-11T07:58:02.734Z,997.01
2022-12-11T07:59:01.945Z,996.94
2022-12-11T08:00:01.943Z,996.90
2022-12-11T08:01:04.766Z,996.95
2022-12-11T08:02:04.725Z,996.94
2022-12-11T08:03:01.893Z,996.98
2022-12-11T08:04:01.648Z,996.99
2022-12-11T08:05:01.656Z,997.03
2022-12-11T08:06:04.919Z,997.00
2022-12-11T08:07:04.890Z,997.00
2022-12-11T08:08:04.687Z,997.00
2022-12-11T08:09:01.822Z,997.07
2022-12-11T08:10:01.619Z,997.05
2022-12-11T08:11:01.565Z,997.04
2022-12-11T08:12:04.629Z,997.09
2022-12-11T08:13:01.798Z,997.07
2022-12-11T08:14:02.559Z,997.12
2022-12-11T08:15:01.558Z,997.05
2022-12-11T08:16:02.599Z,997.04
2022-12-11T08:17:02.798Z,997.07
2022-12-11T08:18:01.740Z,997.12
2022-12-11T08:19:01.750Z,997.02
2022-12-11T08:20:01.725Z,997.07
2022-12-11T08:21:01.718Z,997.07
2022-12-11T08:22:08.645Z,997.08
2022-12-11T08:23:08.744Z,997.09
2022-12-11T08:24:01.688Z,997.06
2022-12-11T08:25:01.648Z,997.10
2022-12-11T08:26:02.597Z,997.10
2022-12-11T08:27:01.435Z,997.10
2022-12-11T08:28:08.560Z,997.11
2022-12-11T08:29:08.462Z,997.11
2022-12-11T08:30:04.410Z,997.10
2022-12-11T08:31:04.442Z,997.13
2022-12-11T08:32:01.647Z,997.12
2022-12-11T08:33:01.593Z,997.10
2022-12-11T08:34:01.564Z,997.12
2022-12-11T08:35:01.342Z,997.14
2022-12-11T08:36:01.635Z,997.15
2022-12-11T08:37:01.367Z,997.14
2022-12-11T08:38:04.336Z,997.12
2022-12-11T08:39:08.772Z,997.09
2022-12-11T08:40:02.297Z,997.12
2022-12-11T08:41:01.306Z,997.12
2022-12-11T08:42:01.534Z,997.12
2022-12-11T08:43:01.532Z,997.15
2022-12-11T08:44:29.540Z,997.15
2022-12-11T08:45:02.230Z,997.10
2022-12-11T08:46:01.280Z,997.14
2022-12-11T08:47:01.236Z,997.12
2022-12-11T08:48:02.440Z,997.13
2022-12-11T08:49:01.458Z,997.17
2022-12-11T08:50:01.196Z,997.13
2022-12-11T08:51:02.158Z,997.17
2022-12-11T08:52:01.611Z,997.17
2022-12-11T08:53:01.377Z,997.14
2022-12-11T08:54:01.393Z,997.18
2022-12-11T08:55:02.145Z,997.16
2022-12-11T08:56:08.442Z,997.16
2022-12-11T08:57:01.196Z,997.18
2022-12-11T08:58:01.131Z,997.17
2022-12-11T08:59:01.308Z,997.12
2022-12-11T09:00:02.125Z,997.18
2022-12-11T09:01:08.230Z,997.17
2022-12-11T09:02:01.069Z,997.15
2022-12-11T09:03:01.073Z,997.18
2022-12-11T09:04:04.075Z,997.16
2022-12-11T09:05:01.233Z,997.14
2022-12-11T09:06:01.047Z,997.11
2022-12-11T09:07:01.027Z,997.13
2022-12-11T09:08:01.084Z,997.15
2022-12-11T09:09:01.247Z,997.11
2022-12-11T09:10:04.247Z,997.10
2022-12-11T09:11:01.210Z,997.11
2022-12-11T09:12:01.992Z,997.07
2022-12-11T09:13:01.197Z,997.09
2022-12-11T09:14:06.744Z,997.12
2022-12-11T09:15:02.165Z,997.14
2022-12-11T09:16:01.980Z,997.11
2022-12-11T09:17:00.915Z,997.13
2022-12-11T09:18:01.181Z,997.12
2022-12-11T09:19:00.904Z,997.13
2022-12-11T09:20:00.888Z,997.14
2022-12-11T09:21:00.886Z,997.12
2022-12-11T09:22:02.143Z,997.14
2022-12-11T09:23:02.104Z,997.16
2022-12-11T09:24:00.866Z,997.20
2022-12-11T09:25:01.065Z,997.18
2022-12-11T09:26:01.869Z,997.16
2022-12-11T09:27:00.804Z,997.20
2022-12-11T09:28:01.059Z,997.23
2022-12-11T09:29:16.247Z,997.18
2022-12-11T09:30:00.813Z,997.24
2022-12-11T09:31:01.857Z,997.21
2022-12-11T09:32:08.041Z,997.15
2022-12-11T09:33:00.742Z,997.19
2022-12-11T09:34:00.743Z,997.16
2022-12-11T09:35:01.038Z,997.21
2022-12-11T09:36:00.957Z,997.22
2022-12-11T09:37:01.973Z,997.14
2022-12-11T09:38:00.948Z,997.15
2022-12-11T09:39:03.704Z,997.21
2022-12-11T09:40:07.081Z,997.19
2022-12-11T09:41:01.903Z,997.18
2022-12-11T09:42:00.917Z,997.19
2022-12-11T09:43:07.729Z,997.20
2022-12-11T09:44:16.108Z,997.22
2022-12-11T09:45:00.888Z,997.19
2022-12-11T09:46:00.670Z,997.19
2022-12-11T09:47:00.633Z,997.16
2022-12-11T09:48:03.661Z,997.15
2022-12-11T09:49:00.609Z,997.18
2022-12-11T09:50:00.629Z,997.13
2022-12-11T09:51:00.836Z,997.19
2022-12-11T09:52:01.596Z,997.14
2022-12-11T09:53:01.552Z,997.15
2022-12-11T09:54:01.653Z,997.19
2022-12-11T09:55:00.583Z,997.22
2022-12-11T09:56:00.529Z,997.19
2022-12-11T09:57:00.754Z,997.17
2022-12-11T09:58:00.791Z,997.19
2022-12-11T09:59:00.738Z,997.16
2022-12-11T10:00:04.845Z,997.17
2022-12-11T10:01:03.620Z,997.09
2022-12-11T10:02:00.728Z,997.10
2022-12-11T10:03:01.551Z,997.12
2022-12-11T10:04:01.716Z,997.12
2022-12-11T10:05:03.755Z,997.14
2022-12-11T10:06:04.563Z,997.11
2022-12-11T10:07:07.709Z,997.13
2022-12-11T10:08:01.723Z,997.09
2022-12-11T10:09:03.445Z,997.06
2022-12-11T10:10:03.697Z,997.06
2022-12-11T10:11:00.384Z,997.02
2022-12-11T10:12:01.394Z,997.03
2022-12-11T10:13:00.343Z,996.95
2022-12-11T10:14:00.592Z,996.99
2022-12-11T10:15:00.420Z,996.99
2022-12-11T10:16:00.449Z,996.99
2022-12-11T10:17:03.595Z,996.94
2022-12-11T10:18:04.963Z,996.96
2022-12-11T10:19:01.555Z,996.98
2022-12-11T10:20:01.539Z,996.98
2022-12-11T10:21:15.849Z,996.95
2022-12-11T10:22:00.294Z,996.95
2022-12-11T10:23:21.303Z,996.94
2022-12-11T10:24:00.239Z,996.94
2022-12-11T10:25:16.583Z,996.97
2022-12-11T10:26:04.251Z,996.95
2022-12-11T10:27:00.273Z,996.91
2022-12-11T10:28:03.262Z,996.95
2022-12-11T10:29:01.468Z,996.94
2022-12-11T10:30:01.207Z,996.93
2022-12-11T10:31:00.489Z,996.95
2022-12-11T10:32:00.177Z,996.94
2022-12-11T10:33:00.220Z,996.94
2022-12-11T10:34:00.394Z,996.93
2022-12-11T10:35:00.145Z,996.96
2022-12-11T10:36:00.135Z,996.91
2022-12-11T10:37:00.633Z,996.90
2022-12-11T10:38:00.121Z,996.86
2022-12-11T10:39:01.127Z,996.83
2022-12-11T10:40:01.075Z,996.82
2022-12-11T10:41:01.324Z,996.84
2022-12-11T10:42:00.072Z,996.80
2022-12-11T10:43:00.101Z,996.81
2022-12-11T10:44:00.282Z,996.77
2022-12-11T10:45:01.060Z,996.74
2022-12-11T10:46:01.183Z,996.75
2022-12-11T10:47:00.055Z,996.75
2022-12-11T10:48:07.351Z,996.72
2022-12-11T10:49:00.016Z,996.73
2022-12-11T10:49:59.996Z,996.71
2022-12-11T10:51:07.115Z,996.71
2022-12-11T10:52:00.232Z,996.69
2022-12-11T10:53:01.188Z,996.68
2022-12-11T10:54:05.599Z,996.72
2022-12-11T10:55:04.246Z,996.71
2022-12-11T10:56:02.960Z,996.68
2022-12-11T10:57:00.175Z,996.67
2022-12-11T10:58:00.133Z,996.66
2022-12-11T10:58:59.949Z,996.68
2022-12-11T10:59:59.905Z,996.65
2022-12-11T11:00:59.876Z,996.63
2022-12-11T11:01:59.908Z,996.62
2022-12-11T11:02:59.933Z,996.60
2022-12-11T11:04:00.110Z,996.65
2022-12-11T11:04:59.841Z,996.63
2022-12-11T11:06:00.833Z,996.64
2022-12-11T11:07:00.840Z,996.59
2022-12-11T11:08:02.904Z,996.57
2022-12-11T11:09:00.847Z,996.61
2022-12-11T11:09:59.831Z,996.59
2022-12-11T11:10:59.805Z,996.67
2022-12-11T11:12:05.983Z,996.60
2022-12-11T11:13:00.993Z,996.56
2022-12-11T11:13:59.765Z,996.59
2022-12-11T11:14:59.790Z,996.60
2022-12-11T11:16:00.745Z,996.61
2022-12-11T11:17:03.056Z,996.61
2022-12-11T11:17:59.943Z,996.57
2022-12-11T11:18:59.939Z,996.56
2022-12-11T11:19:59.921Z,996.53
2022-12-11T11:21:06.784Z,996.55
2022-12-11T11:22:06.940Z,996.51
2022-12-11T11:22:59.912Z,996.51
2022-12-11T11:23:59.644Z,996.48
2022-12-11T11:24:59.669Z,996.49
2022-12-11T11:25:59.870Z,996.51
2022-12-11T11:27:15.008Z,996.51
2022-12-11T11:28:00.608Z,996.43
2022-12-11T11:28:59.624Z,996.46
2022-12-11T11:29:59.836Z,996.46
2022-12-11T11:30:59.668Z,996.48
2022-12-11T11:31:59.745Z,996.46
2022-12-11T11:33:00.865Z,996.43
2022-12-11T11:33:59.565Z,996.44
2022-12-11T11:34:59.563Z,996.42
2022-12-11T11:35:59.537Z,996.43
2022-12-11T11:36:59.523Z,996.43
2022-12-11T11:37:59.538Z,996.43
2022-12-11T11:39:00.547Z,996.38
2022-12-11T11:39:59.494Z,996.38
2022-12-11T11:41:04.356Z,996.38
2022-12-11T11:42:01.457Z,996.36
2022-12-11T11:43:06.728Z,996.38
2022-12-11T11:43:59.684Z,996.40
2022-12-11T11:44:59.462Z,996.41
2022-12-11T11:45:59.652Z,996.36
2022-12-11T11:47:00.460Z,996.36
2022-12-11T11:48:00.648Z,996.40
2022-12-11T11:48:59.432Z,996.38
2022-12-11T11:49:59.639Z,996.38
2022-12-11T11:50:59.381Z,996.37
2022-12-11T11:52:02.379Z,996.31
2022-12-11T11:53:00.641Z,996.29
2022-12-11T11:53:59.571Z,996.24
2022-12-11T11:54:59.375Z,996.26
2022-12-11T11:56:00.581Z,996.22
2022-12-11T11:57:02.577Z,996.25
2022-12-11T11:58:02.561Z,996.25
2022-12-11T11:58:59.326Z,996.20
2022-12-11T11:59:59.309Z,996.25
2022-12-11T12:00:59.306Z,996.25
2022-12-11T12:01:59.272Z,996.21
2022-12-11T12:02:59.581Z,996.20
2022-12-11T12:04:00.257Z,996.19
2022-12-11T12:04:59.259Z,996.11
2022-12-11T12:06:00.247Z,996.15
2022-12-11T12:06:59.224Z,996.15
2022-12-11T12:07:59.245Z,996.18
2022-12-11T12:09:00.463Z,996.13
2022-12-11T12:09:59.247Z,996.15
2022-12-11T12:10:59.434Z,996.05
2022-12-11T12:11:59.412Z,996.12
2022-12-11T12:13:02.176Z,996.12
2022-12-11T12:13:59.383Z,996.12
2022-12-11T12:14:59.165Z,996.13
2022-12-11T12:16:00.187Z,996.15
2022-12-11T12:16:59.208Z,996.17
2022-12-11T12:17:59.320Z,996.16
2022-12-11T12:18:59.330Z,996.16
2022-12-11T12:19:59.340Z,996.17
2022-12-11T12:20:59.316Z,996.15
2022-12-11T12:21:59.329Z,996.15
2022-12-11T12:22:59.063Z,996.15
2022-12-11T12:23:59.276Z,996.11
2022-12-11T12:24:59.084Z,996.11
2022-12-11T12:25:59.032Z,996.07
2022-12-11T12:26:59.061Z,996.08
2022-12-11T12:27:59.233Z,996.13